Time;durP1;ratioP1;P1;durP2;ratioP2;P2;SDS_P1;SDS_P2;PMS_P1;PMS_P2;Temp;Humidity;BMP_temperature;BMP_pressure;BME280_temperature;BME280_humidity;BME280_pressure;Samples;Min_cycle;Max_cycle;Signal;HPM_P1;HPM_P2
2024/01/05 00:01:26;;;;;;;5.93;2.00;;;5.00;99.90;;;4.23;100.00;96197.59;4974740;28;20035;-38
2024/01/05 00:03:51;;;;;;;8.05;2.22;;;5.00;99.90;;;4.15;100.00;96170.91;4974231;28;20447;-38
2024/01/05 00:06:17;;;;;;;6.65;2.25;;;5.00;99.90;;;4.24;100.00;96178.44;4976072;28;20034;-38
2024/01/05 00:08:43;;;;;;;8.40;2.40;;;5.00;99.90;;;4.23;100.00;96176.72;4975868;28;20030;-38
2024/01/05 00:11:08;;;;;;;6.45;2.10;;;5.00;99.90;;;4.18;100.00;96162.94;4975674;28;20030;-38
2024/01/05 00:13:34;;;;;;;5.88;1.90;;;5.00;99.90;;;4.24;100.00;96173.22;4974305;28;20120;-38
2024/01/05 00:16:00;;;;;;;5.10;2.10;;;4.90;99.90;;;4.21;100.00;96157.66;4973312;28;21469;-39
2024/01/05 00:18:26;;;;;;;4.43;1.90;;;5.00;99.90;;;4.22;100.00;96156.75;4977270;28;20026;-38
2024/01/05 00:20:51;;;;;;;5.70;2.13;;;4.90;99.90;;;3.98;100.00;96120.09;4974552;28;20039;-38
2024/01/05 00:23:17;;;;;;;6.85;2.08;;;4.90;99.90;;;4.13;100.00;96144.84;4974284;28;20038;-39
2024/01/05 00:25:43;;;;;;;7.45;2.42;;;4.90;99.90;;;4.15;100.00;96155.25;4972996;28;20054;-38
2024/01/05 00:28:09;;;;;;;3.70;1.58;;;4.90;99.90;;;4.07;100.00;96145.03;4974407;28;20531;-39
2024/01/05 00:30:35;;;;;;;6.25;2.00;;;4.90;99.90;;;4.05;100.00;96132.94;4976041;28;20660;-38
2024/01/05 00:33:01;;;;;;;3.63;1.35;;;4.90;99.90;;;4.06;100.00;96137.28;4972741;28;20045;-38
2024/01/05 00:35:27;;;;;;;5.45;2.00;;;4.80;99.90;;;3.99;100.00;96134.84;4976713;28;20475;-39
2024/01/05 00:37:52;;;;;;;8.35;1.90;;;4.80;99.90;;;4.08;100.00;96143.28;4974795;28;20402;-38
2024/01/05 00:40:18;;;;;;;4.22;1.63;;;4.80;99.90;;;4.11;100.00;96137.94;4975779;28;20062;-39
2024/01/05 00:42:44;;;;;;;5.15;1.70;;;4.80;99.90;;;4.04;100.00;96131.22;4973645;28;20042;-38
2024/01/05 00:45:10;;;;;;;7.72;1.98;;;4.80;99.90;;;4.08;100.00;96164.16;4973276;28;20117;-38
2024/01/05 00:47:36;;;;;;;7.13;1.80;;;4.80;99.90;;;4.07;100.00;96165.06;4974853;28;21613;-38
2024/01/05 00:50:01;;;;;;;5.18;1.67;;;4.80;99.90;;;4.06;100.00;96159.00;4991068;28;20109;-38
2024/01/05 00:52:27;;;;;;;4.70;1.45;;;4.80;99.90;;;4.08;100.00;96151.13;4975619;28;20043;-38
2024/01/05 00:54:53;;;;;;;4.72;1.50;;;4.80;99.90;;;4.06;100.00;96161.59;4972968;28;20038;-38
2024/01/05 00:57:18;;;;;;;5.07;1.50;;;4.80;99.90;;;4.09;100.00;96147.59;4976510;28;20071;-38
2024/01/05 00:59:44;;;;;;;5.65;1.63;;;4.80;99.90;;;4.08;100.00;96158.94;4974282;28;20084;-38
2024/01/05 01:02:10;;;;;;;3.55;1.48;;;4.80;99.90;;;4.08;100.00;96151.97;4969494;28;20046;-38
2024/01/05 01:04:35;;;;;;;6.70;1.60;;;4.80;99.90;;;4.08;100.00;96161.56;4974782;28;20038;-38
2024/01/05 01:07:01;;;;;;;3.90;1.38;;;4.80;99.90;;;4.05;100.00;96162.47;4973453;28;20045;-38
2024/01/05 01:09:27;;;;;;;5.68;1.70;;;4.80;99.90;;;4.04;100.00;96159.91;4977471;28;20491;-38
2024/01/05 01:11:53;;;;;;;4.78;1.30;;;4.80;99.90;;;4.11;100.00;96169.25;4975272;28;20037;-38
2024/01/05 01:14:18;;;;;;;4.78;1.40;;;4.80;99.90;;;4.11;100.00;96161.44;4961310;28;20506;-38
2024/01/05 01:16:44;;;;;;;4.78;1.67;;;4.90;99.90;;;4.15;100.00;96169.13;4976781;28;20521;-38
2024/01/05 01:19:10;;;;;;;6.22;1.52;;;4.90;99.90;;;4.17;100.00;96174.31;4972102;28;20034;-38
2024/01/05 01:21:36;;;;;;;6.10;1.25;;;4.90;99.90;;;4.19;100.00;96162.06;4975646;28;20065;-38
2024/01/05 01:24:01;;;;;;;3.67;1.23;;;4.90;99.90;;;4.21;100.00;96152.44;4969624;28;20479;-38
2024/01/05 01:26:27;;;;;;;4.78;1.20;;;4.90;99.90;;;4.24;100.00;96148.88;4974524;28;20047;-38
2024/01/05 01:28:53;;;;;;;3.03;1.20;;;5.00;99.90;;;4.20;100.00;96129.84;4974393;28;20034;-38
2024/01/05 01:31:18;;;;;;;3.00;1.13;;;5.00;99.90;;;4.28;100.00;96140.03;4971352;28;20030;-38
2024/01/05 01:33:44;;;;;;;2.78;1.25;;;5.00;99.90;;;4.25;100.00;96138.38;4963983;28;20483;-39
2024/01/05 01:36:10;;;;;;;5.85;1.60;;;5.00;99.90;;;4.32;100.00;96133.81;4972078;28;20034;-38
2024/01/05 01:38:36;;;;;;;3.08;1.05;;;5.10;99.90;;;4.32;100.00;96124.22;4974161;28;20128;-37
2024/01/05 01:41:02;;;;;;;6.57;1.73;;;5.10;99.90;;;4.34;100.00;96129.38;4971547;28;20038;-37
2024/01/05 01:43:28;;;;;;;7.53;1.67;;;5.10;99.90;;;4.36;100.00;96122.34;4971641;28;20074;-37
2024/01/05 01:45:56;;;;;;;4.03;1.23;;;5.10;99.90;;;4.30;100.00;96105.16;4965592;28;20061;-37
2024/01/05 01:48:23;;;;;;;3.63;1.10;;;5.10;99.90;;;4.41;100.00;96110.00;4972964;28;20403;-37
2024/01/05 01:50:53;;;;;;;4.75;1.30;;;5.10;99.90;;;4.44;100.00;96098.63;4968027;28;20056;-37
2024/01/05 01:53:21;;;;;;;3.17;1.10;;;5.20;99.90;;;4.35;100.00;96087.59;4974742;28;20034;-38
2024/01/05 01:55:49;;;;;;;4.75;1.50;;;5.20;99.90;;;4.46;100.00;96084.63;4966192;28;20125;-38
2024/01/05 01:58:16;;;;;;;3.65;1.48;;;5.20;99.90;;;4.49;100.00;96083.69;4990061;28;20038;-38
2024/01/05 02:00:44;;;;;;;3.40;1.30;;;5.20;99.90;;;4.52;100.00;96073.09;4971618;28;20558;-38
2024/01/05 02:03:10;;;;;;;6.55;1.50;;;5.20;99.90;;;4.50;100.00;96075.75;4964924;28;20042;-38
2024/01/05 02:05:37;;;;;;;5.93;1.73;;;5.20;99.90;;;4.54;100.00;96076.50;4976488;28;20054;-38
2024/01/05 02:08:03;;;;;;;6.93;1.50;;;5.20;99.90;;;4.52;100.00;96067.88;4968927;28;20035;-39
2024/01/05 02:10:29;;;;;;;5.32;1.27;;;5.30;99.90;;;4.48;100.00;96071.50;4974023;28;20038;-38
2024/01/05 02:12:58;;;;;;;2.55;1.10;;;5.20;99.90;;;4.45;100.00;96069.88;4973803;28;20433;-38
2024/01/05 02:15:24;;;;;;;2.85;1.13;;;5.20;99.90;;;4.48;100.00;96074.13;4988742;28;20461;-38
2024/01/05 02:17:50;;;;;;;6.47;1.10;;;5.20;99.90;;;4.47;100.00;96077.63;4972534;28;20410;-38
2024/01/05 02:20:16;;;;;;;5.60;1.50;;;5.20;99.90;;;4.46;100.00;96084.63;4971505;28;20391;-38
2024/01/05 02:22:47;;;;;;;2.95;1.40;;;5.20;99.90;;;4.44;100.00;96075.97;4973018;28;20073;-38
2024/01/05 02:25:13;;;;;;;6.40;1.30;;;5.20;99.90;;;4.44;100.00;96062.94;4970039;28;20041;-38
2024/01/05 02:27:39;;;;;;;6.30;0.98;;;5.20;99.90;;;4.42;100.00;96059.53;4970264;28;20026;-38
2024/01/05 02:30:06;;;;;;;2.58;1.10;;;5.20;99.90;;;4.41;100.00;96055.19;4968273;28;20093;-38
2024/01/05 02:32:31;;;;;;;3.50;1.10;;;5.10;99.90;;;4.38;100.00;96060.53;4965238;28;20601;-38
2024/01/05 02:34:57;;;;;;;3.65;1.40;;;5.10;99.90;;;4.24;100.00;96024.47;4969020;28;20034;-38
2024/01/05 02:37:23;;;;;;;2.45;1.05;;;5.10;99.90;;;4.36;100.00;96046.66;4973743;28;20166;-38
2024/01/05 02:39:48;;;;;;;5.05;1.13;;;5.10;99.90;;;4.32;100.00;96037.25;4975150;28;20097;-39
2024/01/05 02:42:14;;;;;;;4.18;1.00;;;5.10;99.90;;;4.08;100.00;96000.66;4966208;28;20051;-38
2024/01/05 02:44:40;;;;;;;5.40;1.40;;;5.00;99.90;;;4.27;100.00;96042.63;4971184;28;20491;-38
2024/01/05 02:47:06;;;;;;;4.57;1.30;;;5.00;99.90;;;4.21;100.00;96037.59;4969099;28;20030;-39
2024/01/05 02:49:31;;;;;;;3.35;1.27;;;5.00;99.90;;;4.19;100.00;96034.19;4967350;28;20466;-38
2024/01/05 02:51:57;;;;;;;5.15;1.20;;;5.00;99.90;;;4.23;100.00;96040.16;4962548;28;20038;-38
2024/01/05 02:54:23;;;;;;;4.10;1.20;;;5.00;99.90;;;4.24;100.00;96041.88;4967611;28;20058;-38
2024/01/05 02:56:50;;;;;;;2.88;1.10;;;5.00;99.90;;;4.22;100.00;96036.72;4964393;28;20089;-38
2024/01/05 02:59:16;;;;;;;4.47;1.20;;;5.00;99.90;;;4.25;100.00;96036.59;4964159;28;20475;-38
2024/01/05 03:01:41;;;;;;;4.13;1.50;;;5.00;99.90;;;4.31;100.00;96030.34;4960873;28;20042;-38
2024/01/05 03:04:07;;;;;;;4.43;1.10;;;5.00;99.90;;;4.33;100.00;96023.31;4964113;28;20042;-38
2024/01/05 03:06:33;;;;;;;4.95;1.23;;;5.00;99.90;;;4.27;100.00;96019.16;4964092;28;20030;-38
2024/01/05 03:08:59;;;;;;;4.15;1.05;;;5.10;99.90;;;4.32;100.00;96019.81;4966071;28;20045;-38
2024/01/05 03:11:25;;;;;;;3.30;1.20;;;5.10;99.90;;;4.29;100.00;96009.50;4967743;28;20205;-38
2024/01/05 03:13:51;;;;;;;5.03;1.20;;;5.10;99.90;;;4.34;100.00;96025.00;4967633;28;20030;-38
2024/01/05 03:16:16;;;;;;;3.83;1.10;;;5.10;99.90;;;4.35;100.00;96013.66;4968422;28;20042;-38
2024/01/05 03:18:42;;;;;;;4.68;0.90;;;5.10;99.90;;;4.45;100.00;96030.72;4964367;28;20042;-38
2024/01/05 03:21:09;;;;;;;2.78;0.85;;;5.10;99.90;;;4.49;100.00;96028.84;4966439;28;20049;-38
2024/01/05 03:23:34;;;;;;;7.93;1.40;;;5.20;99.90;;;4.44;100.00;96004.66;4968309;28;20403;-38
2024/01/05 03:26:00;;;;;;;4.90;1.00;;;5.20;99.90;;;4.52;100.00;96008.72;4977879;28;20043;-38
2024/01/05 03:28:26;;;;;;;4.88;1.10;;;5.30;99.90;;;4.57;100.00;95992.88;4977064;28;20046;-38
2024/01/05 03:30:52;;;;;;;3.70;0.90;;;5.30;99.90;;;4.70;100.00;96003.72;4975758;28;20033;-38
2024/01/05 03:33:20;;;;;;;2.63;0.90;;;5.40;99.90;;;4.86;100.00;95999.63;4952696;28;20034;-38
2024/01/05 03:35:46;;;;;;;1.45;0.50;;;5.50;99.90;;;4.96;100.00;95995.78;4972493;28;20030;-38
2024/01/05 03:38:11;;;;;;;5.07;1.10;;;5.70;99.90;;;5.05;100.00;95991.97;4975430;28;20502;-38
2024/01/05 03:40:37;;;;;;;3.60;0.80;;;5.70;99.90;;;5.14;100.00;95994.25;4970237;28;20042;-38
2024/01/05 03:43:03;;;;;;;5.10;0.95;;;5.80;99.90;;;5.19;100.00;95995.81;4964117;28;20081;-38
2024/01/05 03:45:29;;;;;;;2.10;0.90;;;5.90;99.90;;;5.26;100.00;95986.88;4967125;28;20182;-38
2024/01/05 03:47:56;;;;;;;2.88;0.77;;;5.90;99.90;;;5.28;100.00;95990.28;4968866;28;20724;-37
2024/01/05 03:50:21;;;;;;;4.53;0.90;;;6.00;99.90;;;5.32;100.00;95990.06;4967733;28;20030;-38
2024/01/05 03:52:47;;;;;;;2.63;0.70;;;6.00;99.90;;;5.25;100.00;95967.69;4974553;28;21054;-38
2024/01/05 03:55:13;;;;;;;2.03;0.73;;;6.00;99.90;;;5.33;100.00;95991.78;4969221;28;20193;-38
2024/01/05 03:57:38;;;;;;;3.95;0.80;;;6.00;99.90;;;5.34;100.00;95995.25;4967170;28;20042;-37
2024/01/05 04:00:07;;;;;;;3.80;0.93;;;6.00;99.90;;;5.35;100.00;96004.81;4964993;28;20053;-38
2024/01/05 04:02:33;;;;;;;3.42;0.80;;;6.00;99.90;;;5.38;100.00;95996.81;4968367;28;20045;-38
2024/01/05 04:04:58;;;;;;;6.15;1.00;;;6.00;99.90;;;5.41;100.00;95991.47;4966412;28;20157;-38
2024/01/05 04:07:24;;;;;;;1.95;0.70;;;6.10;99.90;;;5.45;100.00;95989.59;4973021;28;20041;-38
2024/01/05 04:09:50;;;;;;;3.03;0.77;;;6.10;99.90;;;5.48;100.00;95979.88;4969501;28;20169;-38
2024/01/05 04:12:17;;;;;;;1.88;0.70;;;6.10;99.90;;;5.38;100.00;95952.38;4967224;28;20026;-38
2024/01/05 04:14:44;;;;;;;1.95;0.75;;;6.20;99.90;;;5.46;100.00;95966.00;4968301;28;20319;-38
2024/01/05 04:17:11;;;;;;;4.68;1.02;;;6.20;99.90;;;5.55;100.00;95976.09;4966124;28;20040;-38
2024/01/05 04:19:37;;;;;;;3.20;1.10;;;6.30;99.90;;;5.58;100.00;95969.03;4969799;28;20034;-38
2024/01/05 04:22:05;;;;;;;3.38;0.70;;;6.30;99.90;;;5.62;100.00;95983.72;4965978;28;20049;-37
2024/01/05 04:24:31;;;;;;;5.20;0.80;;;6.30;99.90;;;5.68;100.00;95983.47;4966144;28;20037;-38
2024/01/05 04:26:56;;;;;;;3.45;0.80;;;6.30;99.90;;;5.71;100.00;95981.56;4965786;28;20026;-38
2024/01/05 04:29:22;;;;;;;4.07;0.90;;;6.30;99.90;;;5.70;100.00;95964.16;4968797;28;20511;-38
2024/01/05 04:31:48;;;;;;;2.13;0.77;;;6.40;99.90;;;5.79;100.00;95968.19;4966181;28;20331;-38
2024/01/05 04:34:13;;;;;;;4.90;0.90;;;6.40;99.90;;;5.81;100.00;95961.09;4966258;28;20034;-38
2024/01/05 04:36:39;;;;;;;4.20;0.82;;;6.40;99.90;;;5.81;100.00;95952.41;4969537;28;20030;-38
2024/01/05 04:39:05;;;;;;;2.60;0.65;;;6.50;99.90;;;5.78;100.00;95953.41;4974524;28;20475;-38
2024/01/05 04:41:31;;;;;;;2.05;0.50;;;6.50;99.90;;;5.83;100.00;95961.94;4966601;28;20033;-38
2024/01/05 04:43:57;;;;;;;1.63;0.50;;;6.50;99.90;;;5.86;100.00;95969.63;4962905;28;20052;-38
2024/01/05 04:46:22;;;;;;;4.47;0.95;;;6.50;99.90;;;5.82;100.00;95964.59;4964756;28;20090;-38
2024/01/05 04:48:48;;;;;;;1.50;0.60;;;6.50;99.90;;;5.79;100.00;95960.31;4966168;28;20030;-38
2024/01/05 04:51:14;;;;;;;3.70;0.70;;;6.40;99.90;;;5.67;100.00;95934.66;4966781;28;20037;-38
2024/01/05 04:53:39;;;;;;;3.92;1.08;;;6.40;99.90;;;5.75;100.00;95950.91;4966097;28;20113;-38
2024/01/05 04:56:06;;;;;;;3.75;0.80;;;6.40;99.90;;;5.72;100.00;95964.09;4965419;28;20022;-38
2024/01/05 04:58:31;;;;;;;1.75;0.52;;;6.40;99.90;;;5.66;100.00;95962.59;4966418;28;20022;-38
2024/01/05 05:00:57;;;;;;;3.55;0.85;;;6.30;99.90;;;5.59;100.00;95957.69;4963302;28;20073;-38
2024/01/05 05:03:25;;;;;;;2.90;0.68;;;6.20;99.90;;;5.48;100.00;95942.44;4966648;28;20060;-38
2024/01/05 05:05:51;;;;;;;1.92;0.60;;;6.20;99.90;;;5.49;100.00;95947.59;4964260;28;20023;-38
2024/01/05 05:08:16;;;;;;;4.88;0.70;;;6.20;99.90;;;5.41;100.00;95946.19;4966305;28;20394;-38
2024/01/05 05:10:42;;;;;;;2.78;0.70;;;6.10;99.90;;;5.47;100.00;95952.03;4966939;28;20414;-38
2024/01/05 05:13:09;;;;;;;2.60;0.70;;;6.20;99.90;;;5.42;100.00;95945.25;4964953;28;20157;-38
2024/01/05 05:15:36;;;;;;;4.65;1.00;;;6.10;99.90;;;5.43;100.00;95955.66;4963812;28;20393;-38
2024/01/05 05:18:02;;;;;;;1.95;0.50;;;6.10;99.90;;;5.41;100.00;95939.19;4967523;28;20042;-38
2024/01/05 05:20:28;;;;;;;2.47;0.60;;;6.10;99.90;;;5.43;100.00;95955.66;4965450;28;20059;-38
2024/01/05 05:22:54;;;;;;;1.77;0.77;;;6.10;99.90;;;5.46;100.00;95952.94;4969717;28;20245;-38
2024/01/05 05:25:19;;;;;;;1.63;0.57;;;6.10;99.90;;;5.48;100.00;95950.28;4962308;28;20030;-38
2024/01/05 05:27:45;;;;;;;2.60;0.57;;;6.20;99.90;;;5.43;100.00;95944.38;4968025;28;20113;-38
2024/01/05 05:30:11;;;;;;;3.13;0.50;;;6.20;99.90;;;5.49;100.00;95944.97;4966515;28;20088;-38
2024/01/05 05:32:36;;;;;;;2.97;0.75;;;6.20;99.90;;;5.54;100.00;95935.19;4964079;28;20218;-38
2024/01/05 05:35:02;;;;;;;2.90;0.65;;;6.20;99.90;;;5.50;100.00;95933.59;4958672;28;20088;-38
2024/01/05 05:37:31;;;;;;;2.28;0.70;;;6.20;99.90;;;5.58;100.00;95941.16;4967432;28;20046;-39
2024/01/05 05:39:57;;;;;;;2.05;0.80;;;6.30;99.90;;;5.64;100.00;95943.50;4964453;28;20423;-39
2024/01/05 05:42:22;;;;;;;1.88;0.60;;;6.30;99.90;;;5.58;100.00;95929.81;4971179;28;20235;-39
2024/01/05 05:44:48;;;;;;;1.23;0.70;;;6.30;99.90;;;5.67;100.00;95951.22;4967623;28;20029;-38
2024/01/05 05:47:14;;;;;;;1.58;0.55;;;6.30;99.90;;;5.72;100.00;95948.41;4967170;28;20390;-39
2024/01/05 05:49:39;;;;;;;4.78;0.60;;;6.30;99.90;;;5.68;100.00;95949.47;4964929;28;20443;-38
2024/01/05 05:52:06;;;;;;;3.17;0.70;;;6.30;99.90;;;5.65;100.00;95942.59;4980942;28;20042;-38
2024/01/05 05:54:31;;;;;;;2.35;0.75;;;6.30;99.90;;;5.62;100.00;95947.94;4962961;28;20037;-38
2024/01/05 05:56:57;;;;;;;2.33;0.80;;;6.30;99.90;;;5.59;100.00;95949.84;4961541;28;20109;-38
2024/01/05 05:59:23;;;;;;;1.70;0.77;;;6.30;99.90;;;5.55;100.00;95936.03;4964802;28;20033;-38
2024/01/05 06:01:49;;;;;;;2.83;0.77;;;6.30;99.90;;;5.57;100.00;95933.38;4964250;28;20521;-38
2024/01/05 06:04:15;;;;;;;1.67;0.60;;;6.20;99.90;;;5.46;100.00;95932.03;4951280;28;20034;-38
2024/01/05 06:06:41;;;;;;;2.75;0.60;;;6.20;99.90;;;5.54;100.00;95944.78;4962888;28;20553;-38
2024/01/05 06:09:07;;;;;;;1.65;0.70;;;6.20;99.90;;;5.49;100.00;95936.25;4964619;28;20160;-38
2024/01/05 06:11:33;;;;;;;1.83;0.60;;;6.20;99.90;;;5.49;100.00;95939.75;4962994;28;20435;-38
2024/01/05 06:13:59;;;;;;;4.30;0.80;;;6.20;99.90;;;5.44;100.00;95927.78;4962609;28;20032;-39
2024/01/05 06:16:25;;;;;;;4.75;0.90;;;6.10;99.90;;;5.42;100.00;95935.69;4962386;28;20026;-38
2024/01/05 06:18:51;;;;;;;2.38;0.60;;;6.10;99.90;;;5.45;100.00;95935.53;4961253;28;20105;-38
2024/01/05 06:21:17;;;;;;;1.65;0.68;;;6.10;99.90;;;5.40;100.00;95924.44;4968569;28;20151;-38
2024/01/05 06:23:42;;;;;;;3.72;0.52;;;6.10;99.90;;;5.38;100.00;95939.31;4971047;28;20137;-38
2024/01/05 06:26:08;;;;;;;2.03;0.73;;;6.10;99.90;;;5.44;100.00;95946.09;4967734;28;20165;-38
2024/01/05 06:28:34;;;;;;;2.60;0.63;;;6.10;99.90;;;5.42;100.00;95950.50;4972178;28;20399;-38
2024/01/05 06:30:59;;;;;;;2.38;0.90;;;6.10;99.90;;;5.40;100.00;95958.44;4966242;28;20034;-39
2024/01/05 06:33:25;;;;;;;1.23;0.70;;;6.10;99.90;;;5.38;100.00;95956.75;4965138;28;20826;-38
2024/01/05 06:35:51;;;;;;;2.17;0.95;;;6.10;99.90;;;5.37;100.00;95966.38;4966760;28;20029;-39
2024/01/05 06:38:16;;;;;;;2.40;0.70;;;6.00;99.90;;;5.35;100.00;95949.91;4971407;28;20038;-38
2024/01/05 06:40:42;;;;;;;2.53;0.63;;;6.00;99.90;;;5.34;100.00;95951.66;4972604;28;20057;-38
2024/01/05 06:43:08;;;;;;;2.45;0.88;;;6.00;99.90;;;5.31;100.00;95951.78;4968714;28;20480;-38
2024/01/05 06:45:34;;;;;;;2.63;0.82;;;6.00;99.90;;;5.34;100.00;95956.03;4968006;28;20464;-38
2024/01/05 06:48:00;;;;;;;3.08;0.93;;;6.00;99.90;;;5.32;100.00;95961.31;4968041;28;20073;-38
2024/01/05 06:50:26;;;;;;;1.88;0.70;;;6.00;99.90;;;5.27;100.00;95954.56;4970227;28;20034;-38
2024/01/05 06:52:52;;;;;;;1.98;0.60;;;6.00;99.90;;;5.23;100.00;95951.22;4972779;28;20222;-38
2024/01/05 06:55:19;;;;;;;1.65;0.73;;;5.90;99.90;;;5.12;100.00;95935.97;4972293;28;20550;-39
2024/01/05 06:57:45;;;;;;;2.75;0.80;;;5.90;99.90;;;5.12;100.00;95949.03;4974184;28;20052;-38
2024/01/05 07:00:11;;;;;;;2.67;1.02;;;5.80;99.90;;;5.07;100.00;95943.13;4972736;28;20062;-39
2024/01/05 07:02:43;;;;;;;2.45;0.90;;;5.80;99.90;;;5.05;100.00;95967.63;4973513;28;20153;-38
2024/01/05 07:05:08;;;;;;;5.93;0.83;;;5.70;99.90;;;5.03;100.00;95961.59;4969749;28;20794;-38
2024/01/05 07:07:34;;;;;;;1.90;0.70;;;5.80;99.90;;;5.03;100.00;95970.28;4971932;28;20331;-38
2024/01/05 07:10:00;;;;;;;2.95;0.88;;;5.80;99.90;;;4.99;100.00;95973.94;4971683;28;20334;-38
2024/01/05 07:12:29;;;;;;;3.35;1.02;;;5.70;99.90;;;4.98;100.00;95967.00;4974342;28;20037;-39
2024/01/05 07:14:54;;;;;;;0.77;0.57;;;5.70;99.90;;;4.94;100.00;95968.88;4970737;28;20117;-38
2024/01/05 07:17:20;;;;;;;1.60;0.85;;;5.70;99.90;;;4.93;100.00;95955.88;4972276;28;20053;-38
2024/01/05 07:19:46;;;;;;;2.00;0.70;;;5.60;99.90;;;4.93;100.00;95964.53;4965886;28;20038;-38
2024/01/05 07:22:11;;;;;;;2.42;0.77;;;5.70;99.90;;;4.97;100.00;95960.06;4970689;28;20026;-38
2024/01/05 07:24:38;;;;;;;2.53;0.85;;;5.70;99.90;;;5.00;100.00;95956.50;4974561;28;20030;-38
2024/01/05 07:27:05;;;;;;;2.03;0.77;;;5.70;99.90;;;5.08;100.00;95957.03;4992253;28;20041;-38
2024/01/05 07:29:30;;;;;;;4.80;0.77;;;5.80;99.90;;;5.12;100.00;95953.41;4970625;28;20553;-38
2024/01/05 07:31:56;;;;;;;3.10;1.00;;;5.80;99.90;;;5.15;100.00;95951.53;4961664;28;20084;-38
2024/01/05 07:34:22;;;;;;;2.60;0.90;;;5.80;99.90;;;5.15;100.00;95948.91;4966519;28;20054;-39
2024/01/05 07:36:48;;;;;;;2.08;0.80;;;5.80;99.90;;;5.12;100.00;95959.47;4965513;28;20080;-39
2024/01/05 07:39:15;;;;;;;3.17;0.90;;;5.80;99.90;;;5.09;100.00;95962.22;4967596;28;20034;-39
2024/01/05 07:41:41;;;;;;;5.80;1.05;;;5.80;99.90;;;5.09;100.00;95971.81;4974332;28;20036;-38
2024/01/05 07:44:07;;;;;;;4.90;1.00;;;5.80;99.90;;;5.07;100.00;95964.03;4967204;28;20030;-38
2024/01/05 07:46:33;;;;;;;3.67;0.80;;;5.70;99.90;;;5.06;100.00;95964.97;4966521;28;23720;-38
2024/01/05 07:48:58;;;;;;;1.60;0.80;;;5.70;99.90;;;5.01;100.00;95955.56;4964309;28;20018;-38
2024/01/05 07:51:24;;;;;;;2.45;0.90;;;5.70;99.90;;;4.98;100.00;95965.22;4961335;28;23578;-38
2024/01/05 07:53:50;;;;;;;2.13;0.95;;;5.70;99.90;;;5.02;100.00;95962.50;4966433;28;20034;-38
2024/01/05 07:56:17;;;;;;;3.58;0.80;;;5.70;99.90;;;5.08;100.00;95954.41;4967051;28;20038;-38
2024/01/05 07:58:44;;;;;;;2.55;0.90;;;5.80;99.90;;;5.14;100.00;95967.28;4966627;28;20034;-38
2024/01/05 08:01:20;;;;;;;2.50;0.70;;;5.80;99.90;;;5.22;100.00;95964.34;4968990;28;20124;-39
2024/01/05 08:03:47;;;;;;;3.88;0.80;;;5.90;99.90;;;5.26;100.00;95971.19;4971774;28;20027;-38
2024/01/05 08:06:20;;;;;;;4.68;0.98;;;5.90;99.90;;;5.28;100.00;95964.13;4970596;28;20053;-37
2024/01/05 08:08:47;;;;;;;3.85;1.20;;;6.00;99.90;;;5.38;100.00;95973.28;4970352;28;20030;-37
2024/01/05 08:11:14;;;;;;;2.53;0.80;;;6.10;99.90;;;5.35;100.00;95944.69;4969567;28;20038;-37
2024/01/05 08:13:44;;;;;;;2.25;0.80;;;6.20;99.90;;;5.64;100.00;95955.75;4968636;28;20121;-37
2024/01/05 08:16:11;;;;;;;3.20;0.77;;;6.30;99.90;;;5.82;100.00;95954.97;4963661;28;20076;-37
2024/01/05 08:18:37;;;;;;;2.28;0.70;;;6.50;99.90;;;5.90;100.00;95939.81;4955434;28;20506;-36
2024/01/05 08:21:03;;;;;;;1.88;0.70;;;6.60;99.90;;;6.01;100.00;95944.66;4964841;28;20034;-38
2024/01/05 08:23:30;;;;;;;1.35;0.60;;;6.60;99.90;;;6.07;100.00;95940.91;4965364;28;20515;-38
2024/01/05 08:25:56;;;;;;;2.97;1.00;;;6.70;99.90;;;6.14;100.00;95946.72;4965924;28;20035;-38
2024/01/05 08:28:22;;;;;;;2.22;0.70;;;6.80;99.90;;;6.17;100.00;95939.56;4967927;28;20530;-38
2024/01/05 08:30:48;;;;;;;0.65;0.52;;;6.90;99.90;;;6.36;100.00;95954.50;4959141;28;20068;-38
2024/01/05 08:33:14;;;;;;;4.40;0.98;;;7.00;99.90;;;6.49;100.00;95955.66;4965519;28;20587;-38
2024/01/05 08:35:40;;;;;;;3.08;0.90;;;7.10;99.90;;;6.62;100.00;95948.13;4972322;28;20046;-39
2024/01/05 08:38:06;;;;;;;2.33;0.77;;;7.30;99.90;;;6.71;100.00;95952.09;4970198;28;20034;-39
2024/01/05 08:40:31;;;;;;;2.63;1.08;;;7.30;99.90;;;6.80;100.00;95951.69;4968895;28;20089;-38
2024/01/05 08:42:58;;;;;;;2.75;0.90;;;7.40;99.90;;;6.88;100.00;95944.34;4969962;28;20034;-38
2024/01/05 08:45:24;;;;;;;1.95;0.95;;;7.50;99.90;;;6.93;100.00;95944.13;4966155;28;20125;-38
2024/01/05 08:47:50;;;;;;;4.05;1.00;;;7.60;99.90;;;7.07;100.00;95945.19;4969891;28;20574;-38
2024/01/05 08:50:19;;;;;;;2.35;0.77;;;7.70;99.90;;;7.10;100.00;95952.06;4969220;28;21420;-39
2024/01/05 08:52:45;;;;;;;3.35;0.85;;;7.70;99.90;;;7.11;100.00;95952.94;4967686;28;20557;-39
2024/01/05 08:55:15;;;;;;;1.45;0.68;;;7.70;99.90;;;7.06;100.00;95955.75;4965887;28;20312;-37
2024/01/05 08:57:41;;;;;;;3.05;0.82;;;7.70;99.90;;;6.99;100.00;95951.72;4965666;28;20048;-36
2024/01/05 09:00:10;;;;;;;1.67;0.82;;;7.60;99.90;;;6.82;100.00;95936.75;4963144;28;20394;-36
2024/01/05 09:02:36;;;;;;;1.67;0.90;;;7.50;99.90;;;6.67;100.00;95941.75;4963836;28;20884;-36
2024/01/05 09:05:05;;;;;;;2.70;0.95;;;7.40;99.90;;;6.53;100.00;95953.75;4962754;28;20039;-38
2024/01/05 09:07:32;;;;;;;2.28;0.82;;;7.20;99.90;;;6.35;100.00;95945.78;4964424;28;20026;-37
2024/01/05 09:09:58;;;;;;;3.45;0.80;;;7.10;99.90;;;6.29;100.00;95957.38;4955523;28;20031;-37
2024/01/05 09:12:24;;;;;;;3.60;0.88;;;7.00;99.90;;;6.09;100.00;95949.53;4968208;28;20081;-37
2024/01/05 09:14:50;;;;;;;1.75;0.90;;;6.80;99.90;;;6.03;100.00;95962.88;4968573;28;20089;-37
2024/01/05 09:17:16;;;;;;;4.78;1.30;;;6.70;99.90;;;5.92;100.00;95969.38;4968064;28;20038;-37
2024/01/05 09:19:42;;;;;;;3.33;1.05;;;6.60;99.90;;;5.83;100.00;95963.66;4966118;28;20100;-37
2024/01/05 09:22:08;;;;;;;3.33;0.90;;;6.50;99.90;;;5.66;100.00;95939.06;4970248;28;20042;-37
2024/01/05 09:24:35;;;;;;;4.00;1.08;;;6.50;99.90;;;5.68;100.00;95962.53;4966188;28;20043;-37
2024/01/05 09:27:02;;;;;;;4.15;1.10;;;6.40;99.90;;;5.64;100.00;95963.59;4970933;28;20030;-37
2024/01/05 09:29:29;;;;;;;3.38;1.05;;;6.30;99.90;;;5.63;100.00;95967.09;4970551;28;20043;-37
2024/01/05 09:31:55;;;;;;;3.15;0.98;;;6.30;99.90;;;5.64;100.00;95976.66;4963410;28;21099;-37
2024/01/05 09:34:21;;;;;;;3.15;1.13;;;6.30;99.90;;;5.69;100.00;95979.94;4967454;28;20048;-37
2024/01/05 09:36:47;;;;;;;2.92;1.13;;;6.40;99.90;;;5.76;100.00;95975.28;4971901;28;20479;-37
2024/01/05 09:39:13;;;;;;;2.28;1.00;;;6.40;99.90;;;5.79;100.00;95977.78;4969919;28;20066;-38
2024/01/05 09:41:46;;;;;;;1.98;1.10;;;6.50;99.90;;;5.86;100.00;95981.88;4968138;28;20043;-38
2024/01/05 09:44:12;;;;;;;5.05;1.65;;;6.50;99.90;;;5.78;100.00;95973.47;4971860;28;20030;-37
2024/01/05 09:46:42;;;;;;;4.70;1.23;;;6.50;99.90;;;5.87;100.00;95992.28;4968820;28;20063;-38
2024/01/05 09:49:08;;;;;;;2.42;0.88;;;6.50;99.90;;;5.82;100.00;95975.91;4967889;28;21286;-37
2024/01/05 09:51:35;;;;;;;3.78;1.02;;;6.60;99.90;;;6.00;100.00;95983.97;4965451;28;20027;-38
2024/01/05 09:54:01;;;;;;;3.17;1.05;;;6.60;99.90;;;6.12;100.00;95983.44;4970421;28;20579;-37
2024/01/05 09:56:28;;;;;;;4.60;0.95;;;6.80;99.90;;;6.25;100.00;95976.75;4970459;28;20037;-38
2024/01/05 09:58:55;;;;;;;3.03;1.20;;;6.90;99.90;;;6.38;100.00;95973.63;4969831;28;20030;-37
2024/01/05 10:01:25;;;;;;;3.53;1.08;;;7.00;99.90;;;6.47;100.00;95970.59;4968084;28;20692;-37
2024/01/05 10:03:57;;;;;;;2.85;0.90;;;7.10;99.90;;;6.53;100.00;95970.31;4968135;28;21034;-37
2024/01/05 10:06:24;;;;;;;4.10;1.35;;;7.20;99.90;;;6.38;100.00;95929.97;4985990;28;20488;-37
2024/01/05 10:08:55;;;;;;;4.10;0.98;;;7.30;99.90;;;6.67;100.00;95965.31;4970539;28;20399;-38
2024/01/05 10:11:33;;;;;;;5.05;0.98;;;7.40;99.90;;;6.78;100.00;95970.09;4968633;28;20323;-37
2024/01/05 10:14:06;;;;;;;3.22;1.10;;;7.40;99.90;;;6.88;100.00;95981.03;4971857;28;20053;-38
2024/01/05 10:16:37;;;;;;;2.47;0.90;;;7.50;99.90;;;6.97;100.00;95961.41;4968894;28;20070;-37
2024/01/05 10:19:14;;;;;;;4.90;1.10;;;7.70;99.90;;;7.11;100.00;95973.91;4957621;28;20029;-37
2024/01/05 10:21:45;;;;;;;3.45;1.08;;;7.70;99.90;;;7.17;100.00;95984.94;4965122;28;20471;-37